Time;durP1;ratioP1;P1;durP2;ratioP2;P2;SDS_P1;SDS_P2;PMS_P1;PMS_P2;Temp;Humidity;BMP_temperature;BMP_pressure;BME280_temperature;BME280_humidity;BME280_pressure;Samples;Min_cycle;Max_cycle;Signal;HPM_P1;HPM_P2
2024/01/11 00:01:46;;;;;;;48.65;27.92;;;;;;;-4.48;100.00;103541.03;4917083;29;20059;-78
2024/01/11 00:04:13;;;;;;;52.30;28.23;;;;;;;-4.46;100.00;103549.84;4910074;29;20051;-78
2024/01/11 00:06:45;;;;;;;49.13;27.38;;;;;;;-4.43;100.00;103541.53;4896756;29;20670;-80
2024/01/11 00:09:13;;;;;;;48.95;28.40;;;;;;;-4.40;100.00;103547.03;4899269;29;20056;-79
2024/01/11 00:11:40;;;;;;;52.72;28.02;;;;;;;-4.40;100.00;103544.44;4899369;29;20048;-79
2024/01/11 00:14:08;;;;;;;53.47;29.40;;;;;;;-4.38;100.00;103548.09;4913429;29;20052;-80
2024/01/11 00:16:35;;;;;;;50.58;27.25;;;;;;;-4.39;100.00;103541.09;4899605;29;20087;-78
2024/01/11 00:19:02;;;;;;;51.13;28.40;;;;;;;-4.37;100.00;103540.50;4891697;29;20079;-78
2024/01/11 00:21:30;;;;;;;54.08;28.95;;;;;;;-4.35;100.00;103545.84;4915226;29;20048;-79
2024/01/11 00:23:58;;;;;;;52.97;28.80;;;;;;;-4.36;100.00;103538.88;4893069;29;20497;-79
2024/01/11 00:26:25;;;;;;;52.47;27.58;;;;;;;-4.37;100.00;103540.50;4888866;29;20453;-79
2024/01/11 00:28:53;;;;;;;57.25;29.77;;;;;;;-4.37;100.00;103543.09;4903912;29;20044;-79
2024/01/11 00:31:21;;;;;;;55.13;29.10;;;;;;;-4.37;100.00;103535.38;4913928;29;20036;-78
2024/01/11 00:33:48;;;;;;;50.20;27.65;;;;;;;-4.35;100.00;103532.97;4905042;29;20055;-80
2024/01/11 00:36:22;;;;;;;52.17;28.52;;;;;;;-4.35;100.00;103531.31;4912183;29;20136;-78
2024/01/11 00:38:50;;;;;;;45.72;26.00;;;;;;;-4.35;100.00;103531.31;4878281;29;20063;-79
2024/01/11 00:41:17;;;;;;;50.63;26.83;;;;;;;-4.34;100.00;103532.22;4908661;29;20052;-80
2024/01/11 00:43:45;;;;;;;49.22;26.17;;;;;;;-4.33;100.00;103509.22;4928251;29;20405;-79
2024/01/11 00:46:12;;;;;;;48.15;25.02;;;;;;;-4.32;100.00;103516.19;4911739;29;20799;-80
2024/01/11 00:48:40;;;;;;;47.10;25.17;;;;;;;-4.30;100.00;103506.06;4916131;29;20044;-79
2024/01/11 00:51:07;;;;;;;52.80;27.67;;;;;;;-4.30;100.00;103516.34;4903036;29;20481;-80
2024/01/11 00:53:35;;;;;;;46.65;26.60;;;;;;;-4.29;100.00;103524.97;4917148;29;20051;-80
2024/01/11 00:56:03;;;;;;;50.28;27.17;;;;;;;-4.31;100.00;103523.16;4877504;29;20073;-79
2024/01/11 00:58:31;;;;;;;51.75;25.92;;;;;;;-4.26;100.00;103522.75;4896924;29;20060;-79
2024/01/11 01:00:58;;;;;;;53.65;27.95;;;;;;;-4.23;100.00;103518.84;4897170;29;20059;-81
2024/01/11 01:03:26;;;;;;;53.72;27.13;;;;;;;-4.20;100.00;103513.06;4900700;29;20055;-79
2024/01/11 01:05:54;;;;;;;49.97;27.63;;;;;;;-4.19;100.00;103514.91;4908207;29;20048;-79
2024/01/11 01:08:22;;;;;;;50.20;26.83;;;;;;;-4.19;100.00;103504.63;4911804;29;20040;-78
2024/01/11 01:10:49;;;;;;;51.60;27.23;;;;;;;-4.20;100.00;103498.53;4892998;29;20413;-78
2024/01/11 01:13:17;;;;;;;46.25;25.63;;;;;;;-4.20;100.00;103500.22;4886313;29;20044;-79
2024/01/11 01:15:44;;;;;;;47.50;26.20;;;;;;;-4.19;100.00;103494.31;4929072;29;20498;-79
2024/01/11 01:18:12;;;;;;;50.33;26.85;;;;;;;-4.20;100.00;103503.69;4911326;29;20050;-79
2024/01/11 01:20:40;;;;;;;46.50;26.00;;;;;;;-4.20;100.00;103500.22;4905635;29;20067;-79
2024/01/11 01:23:07;;;;;;;48.90;25.75;;;;;;;-4.19;100.00;103499.47;4895260;29;20056;-80
2024/01/11 01:25:35;;;;;;;46.28;26.08;;;;;;;-4.20;100.00;103493.38;4875710;29;20052;-79
2024/01/11 01:28:02;;;;;;;41.53;23.33;;;;;;;-4.23;100.00;103493.09;4900542;29;20059;-79
2024/01/11 01:30:30;;;;;;;43.40;24.77;;;;;;;-4.25;100.00;103498.78;4909936;29;20056;-79
2024/01/11 01:32:58;;;;;;;40.40;23.17;;;;;;;-4.31;100.00;103500.00;4913383;29;20378;-79
2024/01/11 01:35:25;;;;;;;43.60;24.25;;;;;;;-4.34;100.00;103491.94;4911784;29;20485;-78
2024/01/11 01:37:53;;;;;;;42.10;23.20;;;;;;;-4.37;100.00;103491.59;4917279;29;20059;-80
2024/01/11 01:40:20;;;;;;;41.83;23.42;;;;;;;-4.42;100.00;103489.28;4895643;29;20912;-79
2024/01/11 01:42:49;;;;;;;44.78;24.88;;;;;;;-4.47;100.00;103495.63;4916332;29;20059;-79
2024/01/11 01:45:17;;;;;;;39.10;22.48;;;;;;;-4.53;100.00;103485.59;4897897;29;20393;-79
2024/01/11 01:47:45;;;;;;;42.92;23.60;;;;;;;-4.56;100.00;103490.41;4912963;29;20068;-78
2024/01/11 01:50:13;;;;;;;42.72;22.70;;;;;;;-4.59;100.00;103497.81;4901821;29;20090;-80
2024/01/11 01:52:43;;;;;;;40.90;23.73;;;;;;;-4.63;100.00;103493.06;4920701;29;20052;-78
2024/01/11 01:55:12;;;;;;;38.53;23.15;;;;;;;-4.67;100.00;103496.97;4894393;29;20058;-79
2024/01/11 01:57:42;;;;;;;41.35;23.42;;;;;;;-4.68;100.00;103494.25;4916413;29;20052;-79
2024/01/11 02:00:11;;;;;;;37.67;21.90;;;;;;;-4.70;100.00;103487.28;4891740;29;20059;-79
2024/01/11 02:02:45;;;;;;;42.70;23.10;;;;;;;-4.74;100.00;103479.97;4901488;29;20040;-78
2024/01/11 02:05:16;;;;;;;41.72;23.55;;;;;;;-4.75;100.00;103480.72;4928021;29;20055;-78
2024/01/11 02:07:44;;;;;;;39.75;21.92;;;;;;;-4.77;100.00;103489.03;4890923;29;20051;-79
2024/01/11 02:10:12;;;;;;;40.10;23.02;;;;;;;-4.78;100.00;103489.75;4902435;29;20040;-80
2024/01/11 02:12:41;;;;;;;39.08;22.98;;;;;;;-4.81;100.00;103489.44;4899136;29;20154;-79
2024/01/11 02:15:09;;;;;;;40.03;21.95;;;;;;;-4.84;100.00;103507.13;4892621;29;20791;-80
2024/01/11 02:17:39;;;;;;;40.53;21.98;;;;;;;-4.86;100.00;103488.03;4914499;29;20044;-81
2024/01/11 02:20:07;;;;;;;41.58;22.77;;;;;;;-4.89;100.00;103496.34;4922494;29;20051;-79
2024/01/11 02:22:38;;;;;;;37.63;21.38;;;;;;;-4.92;100.00;103489.19;4896607;29;20440;-79
2024/01/11 02:25:06;;;;;;;39.03;21.52;;;;;;;-4.93;100.00;103491.63;4913052;29;20052;-79
2024/01/11 02:27:59;;;;;;;37.28;21.27;;;;;;;-4.95;100.00;103499.16;4895456;29;20058;-79
2024/01/11 02:30:27;;;;;;;42.05;21.88;;;;;;;-4.96;100.00;103511.84;4907279;29;20058;-78
2024/01/11 02:32:55;;;;;;;38.60;21.80;;;;;;;-4.96;100.00;103512.75;4905051;29;20051;-80
2024/01/11 02:35:24;;;;;;;39.30;22.48;;;;;;;-4.96;100.00;103510.19;4901133;29;20627;-79
2024/01/11 02:37:52;;;;;;;43.03;22.60;;;;;;;-4.97;100.00;103507.44;4904009;29;20067;-80
2024/01/11 02:40:19;;;;;;;36.55;20.52;;;;;;;-4.97;100.00;103497.16;4906589;29;20045;-79
2024/01/11 02:42:47;;;;;;;41.58;21.77;;;;;;;-4.97;100.00;103507.44;4892281;29;20051;-79
2024/01/11 02:45:14;;;;;;;39.70;22.52;;;;;;;-4.98;100.00;103509.09;4889939;29;20063;-78
2024/01/11 02:47:42;;;;;;;36.65;21.42;;;;;;;-4.95;100.00;103511.13;4927201;29;20063;-78
2024/01/11 02:50:13;;;;;;;43.90;23.20;;;;;;;-4.93;100.00;103513.09;4909003;29;20048;-78
2024/01/11 02:52:40;;;;;;;40.72;23.35;;;;;;;-4.88;100.00;103520.41;4910962;29;20044;-77
2024/01/11 02:55:08;;;;;;;37.58;22.35;;;;;;;-4.85;100.00;103507.88;4917069;29;20066;-80
2024/01/11 02:57:36;;;;;;;40.40;22.02;;;;;;;-4.82;100.00;103514.28;4891241;29;20052;-79
2024/01/11 03:00:05;;;;;;;41.15;22.95;;;;;;;-4.78;100.00;103506.13;4896540;29;20052;-81
2024/01/11 03:02:33;;;;;;;41.25;22.55;;;;;;;-4.73;100.00;103512.66;4925398;29;20494;-80
2024/01/11 03:05:00;;;;;;;40.95;22.80;;;;;;;-4.68;100.00;103509.69;4911327;29;20052;-79
2024/01/11 03:07:28;;;;;;;45.08;24.75;;;;;;;-4.62;100.00;103505.19;4911286;29;20486;-80
2024/01/11 03:09:57;;;;;;;43.83;24.05;;;;;;;-4.56;100.00;103511.00;4918248;29;20710;-79
2024/01/11 03:12:26;;;;;;;42.97;22.90;;;;;;;-4.52;100.00;103502.84;4891011;29;20661;-78
2024/01/11 03:14:53;;;;;;;41.65;23.95;;;;;;;-4.46;100.00;103503.53;4910383;29;20067;-79
2024/01/11 03:17:21;;;;;;;44.53;24.67;;;;;;;-4.41;100.00;103491.13;4890335;29;20056;-79
2024/01/11 03:19:49;;;;;;;45.90;24.30;;;;;;;-4.37;100.00;103489.03;4899426;29;20048;-79
2024/01/11 03:22:16;;;;;;;48.75;24.85;;;;;;;-4.34;100.00;103491.94;4913531;29;20056;-79
2024/01/11 03:24:44;;;;;;;42.30;23.95;;;;;;;-4.29;100.00;103491.50;4904706;29;20048;-78
2024/01/11 03:27:11;;;;;;;46.17;25.08;;;;;;;-4.25;100.00;103488.50;4909160;29;20517;-79
2024/01/11 03:29:38;;;;;;;41.88;23.88;;;;;;;-4.21;100.00;103503.53;4892259;29;20048;-79
2024/01/11 03:32:06;;;;;;;43.53;24.55;;;;;;;-4.18;100.00;103498.69;4895807;29;20051;-80
2024/01/11 03:34:34;;;;;;;41.50;24.10;;;;;;;-4.16;100.00;103498.13;4892980;29;21136;-79
2024/01/11 03:37:01;;;;;;;43.25;23.77;;;;;;;-4.14;100.00;103501.78;4892286;29;20057;-80
2024/01/11 03:39:29;;;;;;;44.65;23.88;;;;;;;-4.09;100.00;103503.91;4909870;29;20056;-79
2024/01/11 03:41:56;;;;;;;43.40;24.15;;;;;;;-4.06;100.00;103497.44;4906379;29;20055;-79
2024/01/11 03:44:24;;;;;;;44.97;24.30;;;;;;;-4.03;100.00;103491.69;4890917;29;23260;-80
2024/01/11 03:46:51;;;;;;;41.97;23.77;;;;;;;-3.99;100.00;103489.59;4893197;29;20051;-79
2024/01/11 03:49:19;;;;;;;47.55;25.17;;;;;;;-3.96;100.00;103489.91;4902073;29;20059;-79
2024/01/11 03:51:47;;;;;;;43.55;26.02;;;;;;;-3.91;100.00;103495.53;4930826;29;20043;-79
2024/01/11 03:54:14;;;;;;;44.22;24.85;;;;;;;-3.89;100.00;103485.38;4910573;29;20421;-80
2024/01/11 03:56:41;;;;;;;43.10;25.00;;;;;;;-3.87;100.00;103496.78;4920336;29;20043;-79
2024/01/11 03:59:10;;;;;;;45.70;24.27;;;;;;;-3.84;100.00;103479.94;4907229;29;20059;-79
2024/01/11 04:01:40;;;;;;;44.20;24.70;;;;;;;-3.81;100.00;103479.38;4897759;29;20054;-79
2024/01/11 04:04:08;;;;;;;47.15;25.83;;;;;;;-3.78;100.00;103479.66;4890921;29;20074;-80
2024/01/11 04:06:35;;;;;;;45.03;24.73;;;;;;;-3.75;100.00;103477.41;4930613;29;20048;-79
2024/01/11 04:09:03;;;;;;;45.65;25.50;;;;;;;-3.72;100.00;103486.38;4930081;29;20051;-80
2024/01/11 04:11:30;;;;;;;44.45;24.70;;;;;;;-3.67;100.00;103478.22;4925752;29;20051;-79
2024/01/11 04:13:58;;;;;;;46.42;25.17;;;;;;;-3.65;100.00;103472.44;4923378;29;20060;-80
2024/01/11 04:16:26;;;;;;;48.25;26.27;;;;;;;-3.62;100.00;103479.59;4891432;29;20043;-79
2024/01/11 04:18:53;;;;;;;44.55;23.70;;;;;;;-3.59;100.00;103483.41;4911945;29;20065;-80
2024/01/11 04:21:30;;;;;;;44.83;25.48;;;;;;;-3.55;100.00;103484.63;4888281;29;20493;-80
2024/01/11 04:23:59;;;;;;;46.97;25.23;;;;;;;-3.53;100.00;103488.28;4916050;29;20063;-81
2024/01/11 04:26:27;;;;;;;46.63;25.63;;;;;;;-3.50;100.00;103491.16;4913687;29;20059;-79
2024/01/11 04:28:58;;;;;;;45.55;25.48;;;;;;;-3.46;100.00;103502.69;4904417;29;20587;-80
2024/01/11 04:31:26;;;;;;;43.83;25.25;;;;;;;-3.44;100.00;103509.84;4929365;29;20043;-80
2024/01/11 04:33:56;;;;;;;45.00;24.88;;;;;;;-3.40;100.00;103506.81;4915634;29;20096;-80
2024/01/11 04:36:23;;;;;;;40.70;24.10;;;;;;;-3.37;100.00;103517.44;4913882;29;20071;-80
2024/01/11 04:38:51;;;;;;;49.78;25.90;;;;;;;-3.33;100.00;103527.34;4916473;29;20106;-80
2024/01/11 04:41:18;;;;;;;44.47;25.45;;;;;;;-3.30;100.00;103526.72;4933055;29;20040;-79
2024/01/11 04:43:46;;;;;;;47.95;25.23;;;;;;;-3.27;100.00;103523.53;4925496;29;20050;-78
2024/01/11 04:46:17;;;;;;;49.83;25.77;;;;;;;-3.26;100.00;103515.97;4898413;29;20055;-79
2024/01/11 04:48:45;;;;;;;46.53;26.05;;;;;;;-3.22;100.00;103512.03;4900321;29;20070;-79
2024/01/11 04:51:15;;;;;;;46.58;25.63;;;;;;;-3.20;100.00;103511.41;4894964;29;20282;-78
2024/01/11 04:53:44;;;;;;;47.43;24.77;;;;;;;-3.18;100.00;103509.91;4916571;29;20512;-79
2024/01/11 04:56:14;;;;;;;44.80;25.33;;;;;;;-3.15;100.00;103511.91;4913830;29;20066;-78
2024/01/11 04:58:43;;;;;;;;;;;;;;;-3.15;100.00;103520.53;4909940;29;20059;-78
2024/01/11 05:01:15;;;;;;;47.30;25.42;;;;;;;-3.11;100.00;103520.88;4897191;29;20450;-80
2024/01/11 05:03:44;;;;;;;47.60;25.35;;;;;;;-3.08;100.00;103532.41;4914914;29;20037;-79
2024/01/11 05:06:16;;;;;;;44.35;26.00;;;;;;;-3.05;100.00;103518.91;4929412;29;20135;-79
2024/01/11 05:08:45;;;;;;;48.53;25.77;;;;;;;-3.04;100.00;103523.31;4895927;29;20056;-79
2024/01/11 05:11:26;;;;;;;46.38;25.95;;;;;;;-3.01;100.00;103513.28;4913483;29;20060;-80
2024/01/11 05:13:54;;;;;;;;;;;;;;;-2.99;100.00;103517.84;4913167;29;20051;-79
2024/01/11 05:16:26;;;;;;;48.08;26.52;;;;;;;-2.97;100.00;103528.31;4884754;29;24463;-79
2024/01/11 05:18:55;;;;;;;48.97;25.80;;;;;;;-2.96;100.00;103515.56;4903367;29;20048;-79
2024/01/11 05:21:24;;;;;;;53.25;28.33;;;;;;;-2.92;100.00;103514.22;4912363;29;20829;-79
2024/01/11 05:23:52;;;;;;;51.70;28.40;;;;;;;-2.89;100.00;103506.78;4876789;29;20055;-80
2024/01/11 05:26:20;;;;;;;54.67;28.15;;;;;;;-2.88;100.00;103510.28;4899829;29;20048;-80
2024/01/11 05:28:48;;;;;;;57.78;29.52;;;;;;;-2.84;100.00;103507.25;4909620;29;20044;-80
2024/01/11 05:31:16;;;;;;;52.50;27.13;;;;;;;-2.82;100.00;103506.63;4922196;29;20418;-80
2024/01/11 05:33:45;;;;;;;56.08;29.77;;;;;;;-2.81;100.00;103508.47;4914520;29;20048;-79
2024/01/11 05:36:14;;;;;;;54.33;28.65;;;;;;;-2.79;100.00;103516.38;4914067;29;20891;-79
2024/01/11 05:38:42;;;;;;;52.15;29.13;;;;;;;-2.77;100.00;103510.59;4933509;29;20055;-78
2024/01/11 05:41:09;;;;;;;50.95;28.30;;;;;;;-2.75;100.00;103511.66;4872053;29;20055;-78
2024/01/11 05:43:39;;;;;;;54.38;28.52;;;;;;;-2.72;100.00;103494.63;4932040;29;20680;-79
2024/01/11 05:46:07;;;;;;;54.05;28.50;;;;;;;-2.69;100.00;103498.44;4903564;29;20064;-79
2024/01/11 05:48:35;;;;;;;53.28;28.60;;;;;;;-2.66;100.00;103500.44;4890513;29;20059;-79
2024/01/11 05:51:02;;;;;;;52.55;29.02;;;;;;;-2.66;100.00;103498.75;4928103;29;20071;-79
2024/01/11 05:53:33;;;;;;;52.58;29.25;;;;;;;-2.64;100.00;103499.81;4897966;29;20058;-80
2024/01/11 05:56:00;;;;;;;;;;;;;;;-2.62;100.00;103494.81;4895527;29;20056;-79
2024/01/11 05:58:28;;;;;;;51.25;28.67;;;;;;;-2.60;100.00;103488.13;4913778;29;20427;-80
2024/01/11 06:00:55;;;;;;;51.20;26.77;;;;;;;-2.59;100.00;103477.97;4910487;29;20048;-79
2024/01/11 06:03:23;;;;;;;50.53;27.70;;;;;;;-2.56;100.00;103474.75;4883583;29;20052;-79
2024/01/11 06:05:50;;;;;;;49.97;28.33;;;;;;;-2.54;100.00;103486.16;4914262;29;20052;-80
2024/01/11 06:08:18;;;;;;;51.95;27.33;;;;;;;-2.54;100.00;103462.91;4913527;29;20713;-79
2024/01/11 06:10:46;;;;;;;50.83;26.80;;;;;;;-2.53;100.00;103464.75;4897610;29;20048;-79
2024/01/11 06:13:13;;;;;;;52.75;27.90;;;;;;;-2.51;100.00;103464.88;4913580;29;20055;-78
2024/01/11 06:15:40;;;;;;;51.50;27.73;;;;;;;-2.49;100.00;103478.88;4931679;29;20044;-80
2024/01/11 06:18:08;;;;;;;54.67;29.00;;;;;;;-2.48;100.00;103462.59;4892843;29;20059;-80
2024/01/11 06:20:36;;;;;;;50.88;28.10;;;;;;;-2.46;100.00;103464.56;4891684;29;20483;-80
2024/01/11 06:23:03;;;;;;;54.65;28.83;;;;;;;-2.44;100.00;103464.72;4930194;29;20051;-79
2024/01/11 06:25:31;;;;;;;55.05;28.20;;;;;;;-2.42;100.00;103468.34;4867941;29;20302;-80
2024/01/11 06:27:59;;;;;;;51.88;28.55;;;;;;;-2.42;100.00;103461.53;4913888;29;20059;-78
2024/01/11 06:30:27;;;;;;;51.25;28.90;;;;;;;-2.40;100.00;103449.69;4908161;29;20052;-77
2024/01/11 06:32:54;;;;;;;53.30;29.08;;;;;;;-2.37;100.00;103441.31;4885164;29;20047;-79
2024/01/11 06:35:22;;;;;;;46.47;27.45;;;;;;;-2.36;100.00;103444.06;4890712;29;20048;-79
2024/01/11 06:37:50;;;;;;;49.95;28.48;;;;;;;-2.34;100.00;103436.47;4930266;29;20052;-79
2024/01/11 06:40:19;;;;;;;51.60;28.92;;;;;;;-2.32;100.00;103437.50;4875624;29;20056;-80
2024/01/11 06:42:47;;;;;;;51.40;28.17;;;;;;;-2.30;100.00;103442.84;4909798;29;20048;-79
2024/01/11 06:45:14;;;;;;;45.05;25.77;;;;;;;-2.27;100.00;103461.19;4904453;29;20050;-79
2024/01/11 06:47:42;;;;;;;49.60;27.75;;;;;;;-2.26;100.00;103461.34;4902297;29;20056;-78
2024/01/11 06:50:12;;;;;;;48.25;26.92;;;;;;;-2.23;100.00;103468.47;4890262;29;20055;-79
2024/01/11 06:52:40;;;;;;;51.75;27.30;;;;;;;-2.21;100.00;103474.69;4896353;29;20055;-79
2024/01/11 06:55:10;;;;;;;46.72;27.45;;;;;;;-2.19;100.00;103488.69;4913601;29;20421;-79
2024/01/11 06:57:38;;;;;;;49.70;26.58;;;;;;;-2.17;100.00;103479.44;4911953;29;20074;-82
2024/01/11 07:00:10;;;;;;;51.15;27.38;;;;;;;-2.14;100.00;103483.97;4913476;29;20066;-79
2024/01/11 07:02:39;;;;;;;51.95;27.00;;;;;;;-2.12;100.00;103479.84;4887222;29;20047;-79
2024/01/11 07:05:07;;;;;;;49.10;26.13;;;;;;;-2.10;100.00;103473.16;4886712;29;20052;-80
2024/01/11 07:07:35;;;;;;;52.22;27.42;;;;;;;-2.09;100.00;103460.41;4908303;29;20043;-80
2024/01/11 07:10:05;;;;;;;48.40;27.58;;;;;;;-2.07;100.00;103469.19;4930105;29;20052;-80
2024/01/11 07:12:33;;;;;;;50.63;26.95;;;;;;;-2.06;100.00;103471.03;4883081;29;20520;-81
2024/01/11 07:15:00;;;;;;;45.28;25.52;;;;;;;-2.04;100.00;103459.19;4886493;29;20043;-79
2024/01/11 07:17:28;;;;;;;51.78;26.80;;;;;;;-2.03;100.00;103460.97;4902693;29;20066;-81
2024/01/11 07:19:55;;;;;;;46.22;26.08;;;;;;;-2.00;100.00;103457.81;4889449;29;20043;-81
2024/01/11 07:22:23;;;;;;;51.55;26.83;;;;;;;-1.98;100.00;103449.41;4893910;29;20052;-79
2024/01/11 07:24:52;;;;;;;48.40;25.35;;;;;;;-1.97;100.00;103451.25;4909321;29;20073;-80
2024/01/11 07:27:19;;;;;;;51.75;26.17;;;;;;;-1.94;100.00;103457.47;4897841;29;20397;-81
2024/01/11 07:29:47;;;;;;;47.78;25.38;;;;;;;-1.93;100.00;103448.94;4884945;29;20428;-80
2024/01/11 07:32:15;;;;;;;45.97;26.42;;;;;;;-1.91;100.00;103444.81;4908828;29;20054;-81
2024/01/11 07:34:42;;;;;;;52.08;27.15;;;;;;;-1.89;100.00;103454.56;4888136;29;20052;-81
2024/01/11 07:37:10;;;;;;;48.88;25.73;;;;;;;-1.87;100.00;103458.22;4899384;29;20497;-80
2024/01/11 07:39:37;;;;;;;48.10;24.80;;;;;;;-1.85;100.00;103464.44;4911559;29;20059;-79
2024/01/11 07:42:05;;;;;;;48.28;24.38;;;;;;;-1.83;100.00;103454.25;4891030;29;20056;-80
2024/01/11 07:44:33;;;;;;;49.03;25.00;;;;;;;-1.81;100.00;103463.97;4898399;29;20050;-80
2024/01/11 07:47:00;;;;;;;47.30;24.50;;;;;;;-1.79;100.00;103471.88;4917170;29;20054;-80
2024/01/11 07:49:29;;;;;;;48.42;23.98;;;;;;;-1.75;100.00;103465.31;4915243;29;20421;-81
2024/01/11 07:51:56;;;;;;;45.60;24.65;;;;;;;-1.74;100.00;103454.19;4896104;29;21810;-81
2024/01/11 07:54:23;;;;;;;51.53;24.85;;;;;;;-1.72;100.00;103461.34;4917999;29;20409;-81
2024/01/11 07:56:51;;;;;;;46.65;24.52;;;;;;;-1.70;100.00;103467.56;4893582;29;20063;-81
2024/01/11 07:59:19;;;;;;;46.83;25.33;;;;;;;-1.68;100.00;103457.34;4884450;29;20052;-81
2024/01/11 08:01:48;;;;;;;45.53;25.02;;;;;;;-1.67;100.00;103457.50;4916939;29;20074;-80
2024/01/11 08:04:15;;;;;;;46.80;23.95;;;;;;;-1.64;100.00;103451.72;4932658;29;20402;-81
2024/01/11 08:06:43;;;;;;;47.40;25.90;;;;;;;-1.63;100.00;103450.94;4908340;29;20052;-80
2024/01/11 08:09:13;;;;;;;46.08;23.63;;;;;;;-1.62;100.00;103458.84;4897503;29;20062;-78
2024/01/11 08:11:43;;;;;;;44.55;24.10;;;;;;;-1.60;100.00;103459.91;4888129;29;20051;-80
2024/01/11 08:14:17;;;;;;;45.80;24.25;;;;;;;-1.58;100.00;103462.63;4894273;29;20048;-80
2024/01/11 08:16:45;;;;;;;45.00;23.13;;;;;;;-1.55;100.00;103468.13;4890729;29;20063;-80
2024/01/11 08:19:15;;;;;;;43.30;23.65;;;;;;;-1.51;100.00;103469.28;4900867;29;20060;-80
2024/01/11 08:21:42;;;;;;;42.72;23.90;;;;;;;-1.50;100.00;103478.88;4925155;29;20054;-80
2024/01/11 08:24:10;;;;;;;43.08;23.20;;;;;;;-1.48;100.00;103486.00;4886087;29;20536;-81
2024/01/11 08:26:37;;;;;;;43.00;24.45;;;;;;;-1.44;100.00;103490.69;4899116;29;20056;-80
2024/01/11 08:29:05;;;;;;;42.30;24.42;;;;;;;-1.41;100.00;103491.00;4886949;29;20052;-80
2024/01/11 08:31:33;;;;;;;47.95;23.35;;;;;;;-1.39;100.00;103484.28;4915604;29;20785;-82
2024/01/11 08:34:04;;;;;;;43.03;22.58;;;;;;;-1.33;100.00;103477.88;4913687;29;20500;-80
2024/01/11 08:36:34;;;;;;;46.22;23.10;;;;;;;-1.30;100.00;103470.41;4924203;29;23193;-81
2024/01/11 08:39:05;;;;;;;42.38;22.88;;;;;;;-1.29;100.00;103457.59;4892735;29;20549;-82
2024/01/11 08:41:35;;;;;;;41.95;24.10;;;;;;;-1.26;100.00;103452.72;4912923;29;20055;-80
2024/01/11 08:44:05;;;;;;;41.42;24.38;;;;;;;-1.22;100.00;103456.50;4887438;29;20434;-82
2024/01/11 08:46:33;;;;;;;33.63;19.05;;;;;;;-1.19;100.00;103451.63;4895606;29;20102;-81
2024/01/11 08:49:03;;;;;;;39.70;21.35;;;;;;;-1.15;100.00;103460.56;4914139;29;20473;-80
2024/01/11 08:51:32;;;;;;;41.60;23.25;;;;;;;-1.13;100.00;103452.19;4913396;29;20079;-78
2024/01/11 08:54:02;;;;;;;40.03;21.95;;;;;;;-1.09;100.00;103464.63;4878988;29;20067;-81
2024/01/11 08:56:29;;;;;;;37.58;21.58;;;;;;;-1.04;100.00;103457.28;4895745;29;20056;-79
2024/01/11 08:58:58;;;;;;;43.60;22.65;;;;;;;-1.01;100.00;103450.72;4905417;29;20056;-80
2024/01/11 09:01:26;;;;;;;39.67;21.63;;;;;;;-0.97;100.00;103454.50;4889765;29;20501;-80
2024/01/11 09:03:54;;;;;;;38.60;22.05;;;;;;;-0.94;100.00;103452.19;4909643;29;20048;-80
2024/01/11 09:06:21;;;;;;;40.30;22.33;;;;;;;-0.90;100.00;103445.63;4925427;29;20498;-80
2024/01/11 09:08:52;;;;;;;40.13;21.40;;;;;;;-0.86;100.00;103450.31;4888476;29;20442;-79
2024/01/11 09:11:20;;;;;;;38.58;21.40;;;;;;;-0.84;100.00;103456.53;4895586;29;20060;-78
2024/01/11 09:13:47;;;;;;;36.40;21.15;;;;;;;-0.80;100.00;103462.13;4902489;29;20063;-80
2024/01/11 09:16:17;;;;;;;35.33;21.27;;;;;;;-0.77;100.00;103469.28;4889601;29;20048;-79
2024/01/11 09:18:45;;;;;;;56.78;21.98;;;;;;;-0.73;100.00;103470.47;4907337;29;20047;-78
2024/01/11 09:21:13;;;;;;;38.65;22.38;;;;;;;-0.70;100.00;103463.88;4912475;29;20051;-79
2024/01/11 09:23:40;;;;;;;35.75;20.65;;;;;;;-0.66;100.00;103473.75;4888422;29;20418;-79
2024/01/11 09:26:08;;;;;;;39.35;21.05;;;;;;;-0.64;100.00;103474.78;4895847;29;20056;-81
2024/01/11 09:28:36;;;;;;;34.80;20.35;;;;;;;-0.60;100.00;103471.72;4912098;29;20052;-80
2024/01/11 09:31:03;;;;;;;34.85;21.13;;;;;;;-0.56;100.00;103480.66;4877658;29;20052;-80
2024/01/11 09:33:32;;;;;;;41.65;21.25;;;;;;;-0.51;100.00;103486.25;4893934;29;20059;-79
2024/01/11 09:36:00;;;;;;;32.97;19.17;;;;;;;-0.48;100.00;103486.53;4909664;29;20048;-78
2024/01/11 09:38:29;;;;;;;32.72;19.48;;;;;;;-0.45;100.00;103492.91;4899222;29;20055;-80
2024/01/11 09:41:04;;;;;;;34.25;20.08;;;;;;;-0.41;100.00;103492.41;4881129;29;20056;-78
2024/01/11 09:43:34;;;;;;;34.67;19.15;;;;;;;-0.38;100.00;103491.78;4908845;29;20048;-80
2024/01/11 09:46:05;;;;;;;34.20;20.27;;;;;;;-0.36;100.00;103487.63;4901071;29;20052;-80
2024/01/11 09:48:38;;;;;;;34.00;19.13;;;;;;;-0.34;100.00;103487.78;4892797;29;20052;-79
2024/01/11 09:51:13;;;;;;;31.95;18.75;;;;;;;-0.33;100.00;103487.03;4903502;29;20051;-80
2024/01/11 09:53:42;;;;;;;34.13;19.70;;;;;;;-0.33;100.00;103489.59;4915409;29;20087;-79
2024/01/11 09:56:10;;;;;;;29.40;18.00;;;;;;;-0.30;100.00;103501.16;4885632;29;20048;-79
2024/01/11 09:58:45;;;;;;;32.17;18.70;;;;;;;-0.29;100.00;103486.50;4911946;29;20224;-81
2024/01/11 10:01:13;;;;;;;32.58;19.60;;;;;;;-0.24;100.00;103487.84;4899723;29;20076;-80
2024/01/11 10:03:44;;;;;;;30.10;18.13;;;;;;;-0.23;100.00;103494.81;4891468;29;20048;-81
2024/01/11 10:06:13;;;;;;;32.38;19.05;;;;;;;-0.19;100.00;103486.56;4912336;29;20051;-81
2024/01/11 10:08:41;;;;;;;31.52;18.52;;;;;;;-0.16;100.00;103481.66;4904077;29;20048;-81
2024/01/11 10:11:09;;;;;;;30.52;18.45;;;;;;;-0.12;100.00;103477.66;4919283;29;20135;-80
2024/01/11 10:13:37;;;;;;;33.33;19.05;;;;;;;-0.08;100.00;103470.28;4874152;29;20086;-80
2024/01/11 10:16:09;;;;;;;30.95;17.73;;;;;;;-0.06;100.00;103479.13;4902718;29;20398;-81
2024/01/11 10:18:37;;;;;;;32.08;18.55;;;;;;;-0.04;100.00;103474.97;4890571;29;20068;-80
2024/01/11 10:21:05;;;;;;;28.70;18.50;;;;;;;-0.02;100.00;103465.66;4922358;29;20071;-80
2024/01/11 10:23:34;;;;;;;30.67;18.17;;;;;;;0.02;100.00;103455.53;4909676;29;20040;-80
2024/01/11 10:26:02;;;;;;;30.30;18.42;;;;;;;0.06;100.00;103460.22;4897655;29;20044;-80
2024/01/11 10:28:29;;;;;;;28.73;17.13;;;;;;;0.05;100.00;103455.81;4891264;29;20063;-80
2024/01/11 10:30:57;;;;;;;29.60;17.42;;;;;;;0.10;100.00;103454.53;4897258;29;20498;-81
2024/01/11 10:33:25;;;;;;;28.50;17.52;;;;;;;0.11;100.00;103444.28;4863669;29;20059;-83
2024/01/11 10:35:54;;;;;;;28.95;18.77;;;;;;;0.15;100.00;103445.44;4907444;29;20051;-80
2024/01/11 10:38:25;;;;;;;29.20;17.95;;;;;;;0.15;100.00;103448.97;4910692;29;20068;-78
2024/01/11 10:40:55;;;;;;;31.85;18.23;;;;;;;0.16;100.00;103440.41;4894642;29;20075;-81
2024/01/11 10:43:23;;;;;;;30.85;18.55;;;;;;;0.21;100.00;103443.41;4887450;29;20044;-79
2024/01/11 10:45:56;;;;;;;30.75;17.98;;;;;;;0.23;100.00;103426.31;4910039;29;20567;-81
2024/01/11 10:48:25;;;;;;;27.73;17.52;;;;;;;0.26;100.00;103426.56;4886818;29;20052;-80
2024/01/11 10:50:59;;;;;;;30.48;18.00;;;;;;;0.27;100.00;103425.78;4893465;29;20056;-79
2024/01/11 10:53:36;;;;;;;30.27;18.35;;;;;;;0.28;100.00;103418.91;4890748;29;20083;-80
2024/01/11 10:56:08;;;;;;;23.35;15.13;;;;;;;0.27;100.00;103427.47;4898945;29;20422;-79
2024/01/11 10:58:37;;;;;;;29.40;17.13;;;;;;;0.28;100.00;103439.66;4872656;29;20074;-81
2024/01/11 11:01:06;;;;;;;26.42;16.77;;;;;;;0.30;100.00;103431.25;4890411;29;20425;-80
2024/01/11 11:03:35;;;;;;;28.88;17.27;;;;;;;0.32;100.00;103426.16;4896801;29;20055;-79
2024/01/11 11:06:05;;;;;;;25.20;15.63;;;;;;;0.35;100.00;103431.63;4882000;29;20414;-80
2024/01/11 11:08:37;;;;;;;29.75;18.15;;;;;;;0.38;100.00;103422.44;4908409;29;20071;-78